CheckWX is a tool to help pilots better visualize weather data.  It is not intended as a substitute for an official pre-flight weather briefing.

02:56:53 UTC

EHRD METAR
Rotterdam Airport
Rotterdam, The Netherlands
Current

32 mins ago

EHRD 230225Z AUTO VRB02KT 9999 NCD 16/15 Q1021 NOSIG
Observed
Jul-23 @ 02:25 UTC
Wind
  • Variable at 2 KTS
Visibility
10,000+ meters
Flight Rules
VFR
Cloud Levels
  • Clear skies
Temperature
16°C / 61°F
Dewpoint
15°C / 59°F
Humidity
94%
Altimeter
30.15" Hg
Pressure
1020.92 hPa
Previous

1 hour ago

EHRD 230155Z AUTO VRB02KT 9999 NCD 16/14 Q1021 NOSIG
Observed
Jul-23 @ 01:55 UTC
Wind
  • Variable at 2 KTS
Visibility
10,000+ meters
Flight Rules
VFR
Cloud Levels
  • Clear skies
Temperature
16°C / 61°F
Dewpoint
14°C / 57°F
Humidity
88%
Altimeter
30.15" Hg
Pressure
1020.92 hPa
Previous

2 hours ago

EHRD 230125Z AUTO VRB02KT 9999 NCD 17/15 Q1021 NOSIG
Observed
Jul-23 @ 01:25 UTC
Wind
  • Variable at 2 KTS
Visibility
10,000+ meters
Flight Rules
VFR
Cloud Levels
  • Clear skies
Temperature
17°C / 63°F
Dewpoint
15°C / 59°F
Humidity
88%
Altimeter
30.15" Hg
Pressure
1020.92 hPa